Segalas

FR-1070 · Lot-et-Garonne, Nouvelle-Aquitaine, France

METAR history FR-1070 · Segalas

Below you see METARs of the last few days. Select a year to browse through older METARs, from the year 2007 onwards.

July 13, 2024

Time Code Weather Temp. Visibility Ceiling Wind METAR/SPECI
13:30
V
22 °C 10 km+ 4,700 ft Var Var 6 kt METAR LFBE 131130Z AUTO VRB06KT 9999 BKN047 22/12 Q1015 NOSIG
13:00
V
21 °C 10 km+ 4,600 ft 310° 310° 6 kt METAR LFBE 131100Z AUTO 31006KT 250V360 9999 BKN046 BKN052 21/12 Q1016 NOSIG
12:30
V
20 °C 10 km+ - Var Var 3 kt METAR LFBE 131030Z AUTO VRB03KT 9999 FEW037 20/11 Q1016 NOSIG
12:00
V
20 °C 10 km+ - 330° 330° 5 kt METAR LFBE 131000Z AUTO 33005KT 290V050 9999 SCT034 SCT041 20/13 Q1016 NOSIG
11:30
V
20 °C 10 km+ 3,200 ft Var Var 4 kt METAR LFBE 130930Z AUTO VRB04KT 9999 BKN032 BKN039 20/12 Q1016 NOSIG
11:00
V
20 °C 10 km+ - Var Var 3 kt METAR LFBE 130900Z AUTO VRB03KT 9999 SCT028 20/12 Q1016 NOSIG
10:30
V
19 °C 10 km+ - 320° 320° 3 kt METAR LFBE 130830Z AUTO 32003KT 260V050 CAVOK 19/12 Q1017 NOSIG
10:00
V
18 °C 10 km+ - Var Var 3 kt METAR LFBE 130800Z AUTO VRB03KT CAVOK 18/14 Q1016 NOSIG
09:30
V
16 °C 10 km+ - Var Var 3 kt METAR LFBE 130730Z AUTO VRB03KT CAVOK 16/13 Q1017 NOSIG
09:00
V
15 °C 10 km+ 20,000 ft 340° 340° 4 kt METAR LFBE 130700Z AUTO 34004KT 310V010 9999 SCT040 BKN200 15/14 Q1017 NOSIG
08:30
V
14 °C 10 km+ 3,700 ft Var Var 2 kt METAR LFBE 130630Z AUTO VRB02KT 9999 OVC037 14/13 Q1017 NOSIG
08:00
V
13 °C 10 km+ 3,500 ft Var Var 2 kt METAR LFBE 130600Z AUTO VRB02KT 9999 OVC035 13/13 Q1017 NOSIG
07:30
V
12 °C 10 km+ 3,600 ft 130° 130° 3 kt METAR LFBE 130530Z AUTO 13003KT 040V150 9999 OVC036 12/12 Q1017 NOSIG
07:00
V
11 °C 10 km+ 3,600 ft 070° 070° 3 kt METAR LFBE 130500Z AUTO 07003KT 9999 BKN036 11/11 Q1017 TEMPO 2500 BR
06:30
V
12 °C 10 km+ 3,500 ft 070° 070° 4 kt METAR LFBE 130430Z AUTO 07004KT 9999 OVC035 12/12 Q1017 TEMPO 2500 BR
06:00
M
12 °C 10 km+ 3,000 ft 360° 360° 0 kt METAR LFBE 130400Z AUTO 00000KT 9999 OVC030 12/12 Q1017 TEMPO 2500 BR
05:30
M
11 °C 10 km+ 2,900 ft 080° 080° 2 kt METAR LFBE 130330Z AUTO 08002KT 9999 OVC029 11/11 Q1017 TEMPO 2500 BR
05:00
M
10 °C 10 km+ 2,900 ft 080° 080° 2 kt METAR LFBE 130300Z AUTO 08002KT 9999 BKN029 10/10 Q1017 TEMPO 4000 BR
04:30
I
10 °C 3.1 km - 070° 070° 3 kt METAR LFBE 130230Z AUTO 07003KT 3100 BR NSC 10/10 Q1017 NOSIG
04:00
I
11 °C 2.3 km - 080° 080° 3 kt METAR LFBE 130200Z AUTO 08003KT 6000 2300 NSC 11/10 Q1017 TEMPO 4000 BR
03:30
V
11 °C 10 km+ - 360° 360° 0 kt METAR LFBE 130130Z AUTO 00000KT CAVOK 11/10 Q1018 TEMPO 4000 BR
03:00
V
12 °C 10 km+ - 160° 160° 2 kt METAR LFBE 130100Z AUTO 16002KT CAVOK 12/11 Q1018 NOSIG
02:30
V
12 °C 10 km+ - 080° 080° 2 kt METAR LFBE 130030Z AUTO 08002KT CAVOK 12/11 Q1018 NOSIG
02:00
V
12 °C 10 km+ - 360° 360° 0 kt METAR LFBE 130000Z AUTO 00000KT CAVOK 12/11 Q1018 NOSIG
01:30
V
12 °C 10 km+ - Var Var 3 kt METAR LFBE 122330Z AUTO VRB03KT CAVOK 12/11 Q1018 NOSIG
01:00
V
12 °C 10 km+ - 220° 220° 3 kt METAR LFBE 122300Z AUTO 22003KT CAVOK 12/11 Q1018
00:30
V
13 °C 10 km+ - 260° 260° 2 kt METAR LFBE 122230Z AUTO 26002KT CAVOK 13/11 Q1018
00:00
V
13 °C 10 km+ - 220° 220° 4 kt METAR LFBE 122200Z AUTO 22004KT CAVOK 13/11 Q1018

July 12, 2024

Time Code Weather Temp. Visibility Ceiling Wind METAR/SPECI
23:30
V
12 °C 10 km+ - 220° 220° 2 kt METAR LFBE 122130Z AUTO 22002KT CAVOK 12/11 Q1018
23:00
V
14 °C 10 km+ - Var Var 3 kt METAR LFBE 122100Z AUTO VRB03KT CAVOK 14/11 Q1018
22:30
V
15 °C 10 km+ - 280° 280° 3 kt METAR LFBE 122030Z AUTO 28003KT 220V300 CAVOK 15/11 Q1018
22:00
V
17 °C 10 km+ - 320° 320° 5 kt METAR LFBE 122000Z AUTO 32005KT CAVOK 17/10 Q1018 NOSIG
21:30
V
18 °C 10 km+ - 310° 310° 7 kt METAR LFBE 121930Z AUTO 31007KT CAVOK 18/11 Q1018 NOSIG
21:00
V
19 °C 10 km+ - 310° 310° 10 kt METAR LFBE 121900Z AUTO 31010KT CAVOK 19/10 Q1018 NOSIG
20:30
V
20 °C 10 km+ - 310° 310° 11 kt METAR LFBE 121830Z AUTO 31011KT 280V340 CAVOK 20/10 Q1017 NOSIG
20:00
V
21 °C 10 km+ - 290° 290° 12 kt METAR LFBE 121800Z AUTO 29012KT CAVOK 21/10 Q1017 NOSIG
19:30
V
22 °C 10 km+ - 280° 280° 12 kt METAR LFBE 121730Z AUTO 28012KT 260V320 CAVOK 22/10 Q1017 NOSIG
19:00
V
22 °C 10 km+ - 290° 290° 10 kt METAR LFBE 121700Z AUTO 29010KT 260V330 CAVOK 22/10 Q1017 NOSIG
18:30
V
23 °C 10 km+ - 280° 280° 13 kt METAR LFBE 121630Z AUTO 28013KT CAVOK 23/11 Q1017 BECMG VRB03KT
18:00
V
23 °C 10 km+ - 280° 280° 14 kt METAR LFBE 121600Z AUTO 28014KT CAVOK 23/11 Q1017 TEMPO 30015G25KT SCT030TCU
17:30
V
23 °C 10 km+ - 280° 280° 12 kt METAR LFBE 121530Z AUTO 28012KT 240V320 9999 FEW049 SCT058 23/12 Q1018 TEMPO 30015G25KT SCT030TCU
17:00
V
23 °C 10 km+ - 280° 280° 15 kt METAR LFBE 121500Z AUTO 28015KT 9999 FEW047 SCT058 23/14 Q1018 TEMPO 30015G25KT SCT030TCU
16:30
V
24 °C 10 km+ 4,900 ft 280° 280° 15 kt METAR LFBE 121430Z AUTO 28015KT 250V310 9999 SCT041 BKN049 BKN064 24/14 Q1018 TEMPO 30015G25KT SCT030TCU
16:00
V
24 °C 10 km+ - 270° 270° 12 kt METAR LFBE 121400Z AUTO 27012KT 240V300 9999 FEW039 SCT049 24/15 Q1017 TEMPO 30015G25KT SCT030TCU
15:30
V
22 °C 10 km+ 3,500 ft 300° 300° 11 kt METAR LFBE 121330Z AUTO 30011KT 270V330 9999 BKN035 BKN041 BKN050 22/15 Q1017 TEMPO 30015G25KT SCT030TCU
15:00
V
22 °C 10 km+ 3,200 ft 290° 290° 10 kt METAR LFBE 121300Z AUTO 29010KT 260V330 9999 BKN032 BKN060 22/16 Q1018 TEMPO 30015G25KT SCT030TCU
14:30
M
21 °C 10 km+ 2,800 ft 310° 310° 12 kt METAR LFBE 121230Z AUTO 31012KT 270V340 9999 BKN028 BKN038 BKN047 21/16 Q1018 TEMPO 30015G25KT SCT030TCU
14:00
V
22 °C 10 km+ 5,800 ft 280° 280° 15 kt METAR LFBE 121200Z AUTO 28015KT 9999 FEW024 SCT029 OVC058 22/16 Q1018 TEMPO 30015G25KT SCT030TCU
13:30
M
21 °C 10 km+ 2,400 ft 300° 300° 12 kt METAR LFBE 121130Z AUTO 30012KT 9999 BKN024 BKN029 OVC054 21/15 Q1018 TEMPO 30015G25KT SCT030TCU
13:00
M
20 °C 10 km+ 2,400 ft 280° 280° 15 kt METAR LFBE 121100Z AUTO 28015KT 9999 BKN024 BKN035 OVC050 20/16 Q1018 TEMPO 30015G25KT SCT030TCU
12:30
V
20 °C 10 km+ 4,800 ft 290° 290° 16 kt METAR LFBE 121030Z AUTO 29016KT 9999 SCT020 SCT026 OVC048 20/16 Q1017 TEMPO 30015G25KT SCT030TCU
12:00
M
20 °C 10 km+ 2,900 ft 290° 290° 14 kt METAR LFBE 121000Z AUTO 29014KT 9999 SCT020 BKN029 OVC049 20/16 Q1017 NOSIG
11:30
M
20 °C 10 km+ 2,000 ft 300° 300° 14 kt METAR LFBE 120930Z AUTO 30014KT 9999 BKN020 BKN033 BKN040 20/16 Q1017 NOSIG
11:00
M
20 °C 10 km+ 1,900 ft 290° 290° 14 kt METAR LFBE 120900Z AUTO 29014KT 9999 BKN019 OVC038 20/17 Q1016 TEMPO 3000 SHRA BKN008 SCT020TCU
10:30
M
21 °C 10 km+ 1,500 ft 280° 280° 13 kt METAR LFBE 120830Z AUTO 28013KT 9999 BKN015 BKN024 BKN033 21/17 Q1016 TEMPO 3000 SHRA BKN008 SCT020TCU
10:00
M
20 °C 10 km+ 1,300 ft 280° 280° 14 kt METAR LFBE 120800Z AUTO 28014KT 9999 SCT009 BKN013 BKN034 20/19 Q1016 TEMPO 3000 SHRA BKN008 SCT020TCU
09:30
I
20 °C 10 km+ 800 ft 280° 280° 11 kt METAR LFBE 120730Z AUTO 28011KT 9999 BKN008/// OVC037/// ///CB 20/19 Q1016 TEMPO 3000 SHRA
09:00
M
19 °C 10 km+ 1,400 ft 280° 280° 17 kt METAR LFBE 120700Z AUTO 28017KT 240V300 9999 FEW008/// BKN014/// BKN029/// ///CB 19/18 Q1016 TEMPO 3000 SHRA BKN008 SCT020TCU
08:30
M
20 °C 10 km+ 1,500 ft 240° 240° 6 kt METAR LFBE 120630Z AUTO 24006KT 200V280 9999 BKN015/// BKN020/// OVC047/// //////TCU 20/18 Q1015 TEMPO 3000 SHRA BKN008 SCT020TCU
08:00
M
20 °C 10 km+ 1,500 ft 240° 240° 4 kt METAR LFBE 120600Z AUTO 24004KT 210V280 9999 FEW010 BKN015 OVC025 20/19 Q1015 TEMPO 3000 SHRA BKN008 SCT020TCU
07:30
M
19 °C 10 km+ 2,600 ft 210° 210° 3 kt METAR LFBE 120530Z AUTO 21003KT 9999 SCT011 OVC026 19/18 Q1015 TEMPO 3000 SHRA BKN008 SCT020TCU
07:00
M
18 °C 10 km+ 1,300 ft 190° 190° 3 kt METAR LFBE 120500Z AUTO 19003KT 9999 BKN013 OVC018 18/18 Q1015 TEMPO 4000 -SHRA
06:30
M
17 °C 10 km+ 1,500 ft 180° 180° 3 kt METAR LFBE 120430Z AUTO 18003KT 9999 BKN015 17/17 Q1015 TEMPO 4000 -SHRA BKN010
06:00
V
18 °C 10 km+ - 210° 210° 2 kt METAR LFBE 120400Z AUTO 21002KT CAVOK 18/17 Q1015 TEMPO 4000 -SHRA BKN010
05:30
V
18 °C 10 km+ - 160° 160° 3 kt METAR LFBE 120330Z AUTO 16003KT 9999 FEW035 SCT100 18/17 Q1015 TEMPO 4000 -SHRA BKN010
05:00
V
19 °C 10 km+ 3,400 ft 240° 240° 4 kt METAR LFBE 120300Z AUTO 24004KT 9999 BKN034 19/17 Q1015 TEMPO 4000 -SHRA BKN010
04:30
V
19 °C 10 km+ 3,500 ft 260° 260° 4 kt METAR LFBE 120230Z AUTO 26004KT 9999 OVC035 19/18 Q1015 TEMPO 4000 -SHRA BKN010
04:00
V
20 °C 10 km+ 3,400 ft 260° 260° 8 kt METAR LFBE 120200Z AUTO 26008KT 9999 FEW014 OVC034 20/18 Q1015 TEMPO 4000 -SHRA BKN010
03:30
M
20 °C 10 km+ 1,400 ft 250° 250° 9 kt METAR LFBE 120130Z AUTO 25009KT 9999 BKN014 BKN020 OVC030 20/18 Q1015 TEMPO 4000 -SHRA
03:00
M
20 °C 10 km+ 1,300 ft 240° 240° 6 kt METAR LFBE 120100Z AUTO 24006KT 9999 BKN013 BKN019 OVC031 20/19 Q1015 TEMPO 4000 -SHRA
02:30
M
20 °C 10 km+ 2,000 ft 250° 250° 5 kt METAR LFBE 120030Z AUTO 25005KT 9999 BKN020 20/19 Q1015 TEMPO 4000 -SHRA BKN010
02:00
M
20 °C 10 km+ 1,700 ft 240° 240° 6 kt METAR LFBE 120000Z AUTO 24006KT 9999 OVC017 20/19 Q1016 TEMPO 4000 -SHRA BKN010
01:30
M
21 °C 10 km+ 2,000 ft 250° 250° 8 kt METAR LFBE 112330Z AUTO 25008KT 9999 BKN020 BKN025 BKN120 21/19 Q1016 TEMPO 4000 -SHRA BKN010
01:00
M
21 °C 10 km+ 2,000 ft 260° 260° 10 kt METAR LFBE 112300Z AUTO 26010KT 9999 BKN020 OVC090 21/19 Q1016
00:30
V
22 °C 10 km+ - 260° 260° 11 kt METAR LFBE 112230Z AUTO 26011KT CAVOK 22/18 Q1015
00:00
V
23 °C 10 km+ - 270° 270° 12 kt METAR LFBE 112200Z AUTO 27012KT CAVOK 23/19 Q1015

July 11, 2024

Time Code Weather Temp. Visibility Ceiling Wind METAR/SPECI
23:30
V
23 °C 10 km+ - 260° 260° 7 kt METAR LFBE 112130Z AUTO 26007KT CAVOK 23/21 Q1015
23:00
V
24 °C 10 km+ - 270° 270° 5 kt METAR LFBE 112100Z AUTO 27005KT CAVOK 24/22 Q1014
22:30
V
24 °C 10 km+ 7,000 ft 290° 290° 6 kt METAR LFBE 112030Z AUTO 29006KT 9999 SCT038/// OVC070/// ///TCU 24/21 Q1014 BECMG BKN030
22:00
V
24 °C 10 km+ 3,700 ft 280° 280° 7 kt METAR LFBE 112000Z AUTO 28007KT 9999 BKN037/// BKN043/// OVC056/// ///CB 24/22 Q1014 BECMG BKN030
21:30
V
24 °C 10 km+ 6,000 ft 250° 250° 5 kt METAR LFBE 111930Z AUTO 25005KT 9999 SCT041/// BKN060/// BKN078/// //////CB 24/22 Q1014 BECMG BKN030
21:00
V
25 °C 10 km+ - 310° 310° 3 kt METAR LFBE 111900Z AUTO 31003KT 9999 //////CB 25/21 Q1014 BECMG BKN030
20:30
V
26 °C 10 km+ - 020° 020° 2 kt METAR LFBE 111830Z AUTO 02002KT CAVOK 26/20 Q1014 BECMG 29010KT
20:00
V
26 °C 10 km+ - 020° 020° 5 kt METAR LFBE 111800Z AUTO 02005KT 340V060 9999 ///CB 26/20 Q1014 BECMG BKN030
19:30
V
27 °C 10 km+ - 300° 300° 8 kt METAR LFBE 111730Z AUTO 30008KT 9999 VCTS ///CB 27/22 Q1013 BECMG NSW BKN030
19:00
V
27 °C 10 km+ - 210° 210° 5 kt METAR LFBE 111700Z AUTO 21005KT 170V250 9999 VCTS ///CB 27/22 Q1013 BECMG NSW BKN030
18:30
M
26 °C 7 km 11,000 ft 180° 180° 7 kt METAR LFBE 111630Z AUTO 18007KT 7000 VCTS FEW021/// SCT088/// BKN110/// //////CB 26/22 Q1013 BECMG 29010KT NSW BKN030
18:00
I
28 °C 4.4 km 9,200 ft Var Var 2 kt METAR LFBE 111600Z AUTO VRB02KT 4400 TSRA BR FEW042/// SCT072/// BKN092/// ///CB 28/23 Q1013 TEMPO VRB30G40KT BECMG 9999 NSW BKN030
17:30
V
30 °C 10 km+ - Var Var 2 kt METAR LFBE 111530Z AUTO VRB02KT 9999 VCTS ///CB 30/20 Q1013 TEMPO VRB15G30KT 1500 TSRA BECMG BKN030
17:00
V
31 °C 10 km+ - Var Var 2 kt METAR LFBE 111500Z AUTO VRB02KT CAVOK 31/20 Q1013 TEMPO 1500 TSRA BKN005 BKN015CB
16:30
V
31 °C 10 km+ - 260° 260° 3 kt METAR LFBE 111430Z AUTO 26003KT 210V320 CAVOK 31/21 Q1014 TEMPO 1500 TSRA BKN005 BKN015CB
16:00
V
31 °C 10 km+ - 220° 220° 3 kt METAR LFBE 111400Z AUTO 22003KT 170V310 CAVOK 31/20 Q1014 NOSIG
15:30
V
30 °C 10 km+ - Var Var 3 kt METAR LFBE 111330Z AUTO VRB03KT 9999 FEW037 30/22 Q1014 NOSIG
15:00
V
30 °C 10 km+ - Var Var 4 kt METAR LFBE 111300Z AUTO VRB04KT 9999 FEW034 30/22 Q1014 TEMPO 4000 -SHRA BKN020TCU
14:30
V
29 °C 10 km+ - Var Var 4 kt METAR LFBE 111230Z AUTO VRB04KT 9999 FEW033 SCT078 29/21 Q1014 TEMPO 4000 -SHRA BKN020TCU
14:00
V
28 °C 10 km+ - Var Var 4 kt METAR LFBE 111200Z AUTO VRB04KT 9999 FEW029 SCT100 28/22 Q1015 TEMPO 4000 -SHRA BKN020TCU
13:30
V
28 °C 10 km+ - 100° 100° 5 kt METAR LFBE 111130Z AUTO 10005KT 030V150 9999 ///CB 28/22 Q1015 BECMG NSC
13:00
V
28 °C 10 km+ - 060° 060° 7 kt METAR LFBE 111100Z AUTO 06007KT 030V100 9999 ///CB 28/21 Q1015 TEMPO 3000 SHRA BECMG NSC
12:30
V
27 °C 10 km+ - 080° 080° 5 kt METAR LFBE 111030Z AUTO 08005KT 040V110 9999 //////CB 27/22 Q1015 TEMPO 3000 SHRA BECMG NSC
11:30
V
25 °C 10 km+ - 050° 050° 7 kt METAR LFBE 110930Z AUTO 05007KT CAVOK 25/21 Q1015 TEMPO 3000 SHRA BKN005 BKN040CB
11:00
V
24 °C 10 km+ - 060° 060° 5 kt METAR LFBE 110900Z AUTO 06005KT 9999 ///CB 24/21 Q1016 TEMPO 3000 SHRA BKN005 BKN040CB
10:30
V
23 °C 10 km+ - 360° 360° 3 kt METAR LFBE 110830Z AUTO 36003KT 9999 ///CB 23/21 Q1016 TEMPO 3000 SHRA BKN005 BKN040CB
10:00
V
23 °C 10 km+ - Var Var 3 kt METAR LFBE 110800Z AUTO VRB03KT 9999 ///CB 23/21 Q1016 TEMPO 3000 SHRA BKN005 BKN040CB
09:30
V
21 °C 10 km+ 9,600 ft Var Var 2 kt METAR LFBE 110730Z AUTO VRB02KT 9999 FEW041/// BKN096/// OVC140/// //////CB 21/20 Q1016 TEMPO 3000 SHRA
09:00
V
21 °C 10 km+ 9,000 ft Var Var 2 kt METAR LFBE 110700Z AUTO VRB02KT 9999 SCT005/// BKN090/// BKN140/// ///CB 21/20 Q1016 TEMPO 3000 SHRA
08:30
V
20 °C 10 km+ 14,000 ft 070° 070° 5 kt METAR LFBE 110630Z AUTO 07005KT 9999 FEW003/// BKN140/// OVC170/// ///CB 20/20 Q1016 TEMPO 3000 SHRA
08:00
V
19 °C 10 km+ 8,600 ft 010° 010° 3 kt METAR LFBE 110600Z AUTO 01003KT 330V060 9999 FEW042/// SCT072/// OVC086/// ///CB 19/19 Q1017 TEMPO 3000 SHRA
Report a change